createdAt,value
2022-09-23T00:01:55.157Z,93.82
2022-09-23T00:04:41.374Z,93.60
2022-09-23T00:07:26.275Z,93.86
2022-09-23T00:10:11.100Z,93.20
2022-09-23T00:12:55.843Z,93.32
2022-09-23T00:15:40.768Z,92.88
2022-09-23T00:18:25.587Z,93.17
2022-09-23T00:21:13.154Z,94.18
2022-09-23T00:23:58.546Z,93.94
2022-09-23T00:26:43.688Z,94.41
2022-09-23T00:29:28.947Z,94.43
2022-09-23T00:32:14.338Z,94.41
2022-09-23T00:34:59.398Z,93.89
2022-09-23T00:37:44.169Z,94.14
2022-09-23T00:40:29.084Z,93.83
2022-09-23T00:43:15.181Z,94.52
2022-09-23T00:46:00.363Z,94.00
2022-09-23T00:48:47.506Z,94.48
2022-09-23T00:51:36.503Z,94.43
2022-09-23T00:54:23.972Z,94.52
2022-09-23T00:57:11.052Z,94.53
2022-09-23T00:59:56.684Z,94.06
2022-09-23T01:02:41.554Z,94.58
2022-09-23T01:05:26.463Z,94.10
2022-09-23T01:08:13.844Z,95.11
2022-09-23T01:11:02.430Z,93.99
2022-09-23T01:14:15.195Z,94.42
2022-09-23T01:17:15.853Z,94.70
2022-09-23T01:20:24.245Z,94.63
2022-09-23T01:23:51.173Z,95.28
2022-09-23T01:26:58.970Z,95.15
2022-09-23T01:30:09.221Z,95.82
2022-09-23T01:33:13.156Z,96.66
2022-09-23T01:36:15.921Z,96.26
2022-09-23T01:39:12.754Z,95.45
2022-09-23T01:42:17.231Z,96.09
2022-09-23T01:45:12.529Z,96.49
2022-09-23T01:48:23.170Z,95.63
2022-09-23T01:51:15.241Z,96.38
2022-09-23T01:54:22.335Z,96.29
2022-09-23T01:57:33.245Z,96.32
2022-09-23T02:00:22.219Z,96.55
2022-09-23T02:03:13.427Z,96.16
2022-09-23T02:06:06.934Z,96.55
2022-09-23T02:08:58.048Z,96.74
2022-09-23T02:11:47.991Z,96.62
2022-09-23T02:14:44.222Z,97.00
2022-09-23T02:17:53.535Z,97.44
2022-09-23T02:20:42.155Z,97.29
2022-09-23T02:23:32.886Z,97.55
2022-09-23T02:26:23.016Z,97.85
2022-09-23T02:29:25.064Z,98.16
2022-09-23T02:32:34.348Z,98.53
2022-09-23T02:35:48.848Z,97.74
2022-09-23T02:38:41.530Z,97.74
2022-09-23T02:41:49.591Z,97.93
2022-09-23T02:44:34.647Z,98.20
2022-09-23T02:47:24.680Z,98.06
2022-09-23T02:50:09.750Z,98.09
2022-09-23T02:52:54.911Z,98.33
2022-09-23T02:55:39.978Z,98.19
2022-09-23T02:58:25.429Z,98.14
2022-09-23T03:01:32.461Z,97.87
2022-09-23T03:04:35.710Z,98.24
2022-09-23T03:07:43.970Z,98.99
2022-09-23T03:10:52.892Z,98.71
2022-09-23T03:14:16.836Z,99.23
2022-09-23T03:17:06.909Z,100.00
2022-09-23T03:20:12.473Z,100.00
2022-09-23T03:23:02.576Z,100.00
2022-09-23T03:25:50.248Z,100.00
2022-09-23T03:28:37.156Z,99.74
2022-09-23T03:31:22.142Z,99.13
2022-09-23T03:34:14.668Z,99.77
2022-09-23T03:37:21.552Z,99.64
2022-09-23T03:40:18.047Z,99.26
2022-09-23T03:43:04.901Z,99.60
2022-09-23T03:45:54.504Z,99.83
2022-09-23T03:48:40.618Z,99.68
2022-09-23T03:51:25.592Z,99.28
2022-09-23T03:54:10.884Z,98.97
2022-09-23T03:56:59.533Z,99.73
2022-09-23T03:59:44.495Z,99.60
2022-09-23T04:02:29.749Z,99.82
2022-09-23T04:05:14.872Z,100.00
2022-09-23T04:08:00.043Z,100.00
2022-09-23T04:10:46.844Z,100.00
2022-09-23T04:13:32.381Z,99.83
2022-09-23T04:16:17.788Z,99.61
2022-09-23T04:19:02.721Z,99.35
2022-09-23T04:21:48.216Z,99.78
2022-09-23T04:24:33.397Z,99.55
2022-09-23T04:27:18.616Z,98.90
2022-09-23T04:30:05.033Z,99.09
2022-09-23T04:32:52.483Z,99.91
2022-09-23T04:35:40.273Z,99.26
2022-09-23T04:38:26.070Z,99.66
2022-09-23T04:41:11.192Z,100.00
2022-09-23T04:43:57.348Z,100.00
2022-09-23T04:46:43.838Z,100.00
2022-09-23T04:49:29.891Z,100.00
2022-09-23T04:52:15.034Z,100.00
2022-09-23T04:54:59.748Z,100.00
2022-09-23T04:57:44.572Z,100.00
2022-09-23T05:00:29.545Z,100.00
2022-09-23T05:03:15.007Z,100.00
2022-09-23T05:06:01.913Z,100.00
2022-09-23T05:08:51.190Z,100.00
2022-09-23T05:11:36.070Z,100.00
2022-09-23T05:14:21.003Z,100.00
2022-09-23T05:17:06.887Z,100.00
2022-09-23T05:19:51.860Z,100.00
2022-09-23T05:22:36.887Z,100.00
2022-09-23T05:25:23.688Z,100.00
2022-09-23T05:28:09.336Z,100.00
2022-09-23T05:31:02.322Z,100.00
2022-09-23T05:33:51.675Z,100.00
2022-09-23T05:36:38.810Z,100.00
2022-09-23T05:39:23.996Z,100.00
2022-09-23T05:42:09.180Z,100.00
2022-09-23T05:44:54.256Z,100.00
2022-09-23T05:47:39.704Z,100.00
2022-09-23T05:50:24.814Z,100.00
2022-09-23T05:53:09.633Z,100.00
2022-09-23T05:55:54.505Z,100.00
2022-09-23T05:58:39.634Z,100.00
2022-09-23T06:01:27.798Z,100.00
2022-09-23T06:04:14.184Z,100.00
2022-09-23T06:07:03.306Z,99.99
2022-09-23T06:09:48.924Z,100.00
2022-09-23T06:12:35.148Z,99.86
2022-09-23T06:15:20.061Z,99.35
2022-09-23T06:18:06.399Z,100.00
2022-09-23T06:20:51.911Z,100.00
2022-09-23T06:23:39.867Z,100.00
2022-09-23T06:26:27.287Z,100.00
2022-09-23T06:29:12.390Z,100.00
2022-09-23T06:31:59.573Z,100.00
2022-09-23T06:34:51.670Z,99.42
2022-09-23T06:37:36.902Z,99.13
2022-09-23T06:40:22.461Z,99.04
2022-09-23T06:43:08.332Z,98.85
2022-09-23T06:45:57.849Z,97.91
2022-09-23T06:48:46.181Z,98.18
2022-09-23T06:51:31.936Z,97.89
2022-09-23T06:54:17.003Z,96.97
2022-09-23T06:57:01.831Z,97.90
2022-09-23T06:59:46.744Z,97.29
2022-09-23T07:02:31.711Z,97.12
2022-09-23T07:05:17.207Z,97.11
2022-09-23T07:08:03.107Z,96.94
2022-09-23T07:10:53.069Z,96.50
2022-09-23T07:13:39.751Z,95.22
2022-09-23T07:16:24.783Z,94.89
2022-09-23T07:19:09.625Z,95.42
2022-09-23T07:21:54.421Z,93.27
2022-09-23T07:24:39.334Z,91.79
2022-09-23T07:27:25.240Z,91.47
2022-09-23T07:30:19.427Z,91.11
2022-09-23T07:33:21.943Z,90.01
2022-09-23T07:36:17.116Z,88.79
2022-09-23T07:39:03.433Z,88.67
2022-09-23T07:41:49.163Z,88.47
2022-09-23T07:44:34.322Z,87.17
2022-09-23T07:47:20.407Z,86.24
2022-09-23T07:50:07.546Z,83.97
2022-09-23T07:52:52.895Z,83.68
2022-09-23T07:55:38.051Z,83.63
2022-09-23T07:58:23.395Z,82.76
2022-09-23T08:01:10.243Z,81.07
2022-09-23T08:04:00.117Z,80.67
2022-09-23T08:06:47.987Z,79.88
2022-09-23T08:09:41.289Z,78.22
2022-09-23T08:12:27.044Z,78.88
2022-09-23T08:15:12.083Z,78.79
2022-09-23T08:17:59.702Z,78.97
2022-09-23T08:20:47.146Z,77.71
2022-09-23T08:23:33.810Z,78.78
2022-09-23T08:26:21.961Z,77.75
2022-09-23T08:29:10.044Z,77.18
2022-09-23T08:31:55.407Z,74.96
2022-09-23T08:34:40.620Z,74.78
2022-09-23T08:37:25.430Z,74.81
2022-09-23T08:40:10.559Z,75.81
2022-09-23T08:42:56.755Z,75.17
2022-09-23T08:45:43.369Z,73.80
2022-09-23T08:48:32.111Z,74.31
2022-09-23T08:51:29.187Z,73.69
2022-09-23T08:54:17.632Z,70.48
2022-09-23T08:57:05.639Z,67.09
2022-09-23T08:59:50.696Z,65.85
2022-09-23T09:02:36.569Z,63.02
2022-09-23T09:05:27.467Z,66.90
2022-09-23T09:08:12.878Z,65.94
2022-09-23T09:10:58.274Z,63.17
2022-09-23T09:13:59.599Z,61.27
2022-09-23T09:17:00.130Z,64.03
2022-09-23T09:19:53.629Z,65.08
2022-09-23T09:22:52.609Z,63.27
2022-09-23T09:25:51.832Z,64.84
2022-09-23T09:28:45.991Z,62.34
2022-09-23T09:31:34.501Z,61.38
2022-09-23T09:34:32.471Z,58.56
2022-09-23T09:37:31.652Z,59.47
2022-09-23T09:40:17.690Z,61.07
2022-09-23T09:43:04.556Z,57.59
2022-09-23T09:46:08.159Z,61.01
2022-09-23T09:48:59.151Z,59.59
2022-09-23T09:51:44.244Z,58.71
2022-09-23T09:54:29.117Z,60.50
2022-09-23T09:57:30.666Z,59.21
2022-09-23T10:00:33.053Z,62.82
2022-09-23T10:03:17.834Z,62.15
2022-09-23T10:06:17.794Z,63.16
2022-09-23T10:09:19.363Z,61.02
2022-09-23T10:12:14.775Z,61.67
2022-09-23T10:15:00.927Z,57.84
2022-09-23T10:17:51.176Z,56.41
2022-09-23T10:20:38.107Z,56.98
2022-09-23T10:23:28.032Z,53.54
2022-09-23T10:26:15.027Z,53.11
2022-09-23T10:29:04.426Z,54.79
2022-09-23T10:31:52.661Z,57.72
2022-09-23T10:34:43.195Z,56.24
2022-09-23T10:37:49.281Z,57.74
2022-09-23T10:41:01.761Z,54.96
2022-09-23T10:44:40.872Z,55.88
2022-09-23T10:47:35.992Z,56.14
2022-09-23T10:50:38.140Z,54.46
2022-09-23T10:53:52.773Z,55.54
2022-09-23T10:56:48.153Z,53.18
2022-09-23T10:59:47.477Z,52.62
2022-09-23T11:03:03.903Z,53.53
2022-09-23T11:06:14.079Z,54.50
2022-09-23T11:09:05.296Z,53.55
2022-09-23T11:12:13.211Z,54.48
2022-09-23T11:15:22.215Z,55.65
2022-09-23T11:18:41.978Z,55.16
2022-09-23T11:21:29.794Z,54.70
2022-09-23T11:24:57.945Z,53.33
2022-09-23T11:27:58.097Z,49.25
2022-09-23T11:31:40.035Z,51.91
2022-09-23T11:34:39.979Z,53.21
2022-09-23T11:37:30.584Z,51.38
2022-09-23T11:40:32.964Z,52.79
2022-09-23T11:43:28.500Z,52.12
2022-09-23T11:46:38.701Z,54.57
2022-09-23T11:49:47.501Z,54.95
2022-09-23T11:52:44.551Z,54.41
2022-09-23T11:55:42.015Z,55.06
2022-09-23T11:58:37.749Z,53.51
2022-09-23T12:01:38.060Z,56.87
2022-09-23T12:04:52.201Z,53.67
2022-09-23T12:07:53.982Z,53.06
2022-09-23T12:11:06.398Z,55.51
2022-09-23T12:14:13.672Z,52.60
2022-09-23T12:17:27.415Z,52.65
2022-09-23T12:21:03.605Z,50.92
2022-09-23T12:24:02.940Z,49.90
2022-09-23T12:26:56.084Z,49.63
2022-09-23T12:29:41.607Z,46.20
2022-09-23T12:32:27.502Z,47.57
2022-09-23T12:35:22.624Z,47.39
2022-09-23T12:38:20.148Z,46.85
2022-09-23T12:41:28.011Z,46.70
2022-09-23T12:44:13.386Z,50.57
2022-09-23T12:47:14.068Z,51.53
2022-09-23T12:50:01.042Z,47.28
2022-09-23T12:52:45.853Z,50.79
2022-09-23T12:55:54.150Z,49.09
2022-09-23T12:58:42.217Z,50.16
2022-09-23T13:01:28.558Z,49.94
2022-09-23T13:05:03.179Z,49.64
2022-09-23T13:07:50.390Z,50.07
2022-09-23T13:10:45.674Z,53.90
2022-09-23T13:13:42.880Z,51.50
2022-09-23T13:16:34.201Z,50.51
2022-09-23T13:19:25.547Z,51.07
2022-09-23T13:22:12.113Z,51.35
2022-09-23T13:25:08.633Z,51.69
2022-09-23T13:28:01.416Z,51.45
2022-09-23T13:30:51.959Z,52.49
2022-09-23T13:33:42.575Z,52.85
2022-09-23T13:36:27.613Z,53.09
2022-09-23T13:39:22.474Z,51.27
2022-09-23T13:42:17.173Z,52.61
2022-09-23T13:45:02.192Z,53.37
2022-09-23T13:47:48.750Z,53.58
2022-09-23T13:50:36.380Z,55.23
2022-09-23T13:53:30.878Z,57.00
2022-09-23T13:56:16.868Z,53.96
2022-09-23T13:59:38.412Z,53.51
2022-09-23T14:02:25.736Z,53.36
2022-09-23T14:05:12.706Z,54.23
2022-09-23T14:07:57.877Z,54.17
2022-09-23T14:10:45.888Z,54.37
2022-09-23T14:13:35.841Z,56.85
2022-09-23T14:16:25.025Z,55.09
2022-09-23T14:19:28.088Z,55.56
2022-09-23T14:22:27.529Z,57.87
2022-09-23T14:25:17.638Z,55.98
2022-09-23T14:28:03.328Z,57.33
2022-09-23T14:30:50.989Z,56.55
2022-09-23T14:33:40.913Z,56.08
2022-09-23T14:36:44.644Z,62.69
2022-09-23T14:39:29.847Z,60.46
2022-09-23T14:42:15.323Z,59.24
2022-09-23T14:45:00.145Z,59.03
2022-09-23T14:47:49.888Z,63.17
2022-09-23T14:50:40.258Z,58.45
2022-09-23T14:53:34.413Z,55.10
2022-09-23T14:56:21.918Z,60.18
2022-09-23T14:59:25.376Z,58.97
2022-09-23T15:02:34.804Z,56.01
2022-09-23T15:05:50.217Z,56.96
2022-09-23T15:08:35.740Z,65.05
2022-09-23T15:11:25.072Z,58.26
2022-09-23T15:14:36.202Z,59.46
2022-09-23T15:17:25.036Z,57.86
2022-09-23T15:20:16.273Z,59.26
2022-09-23T15:23:01.617Z,60.46
2022-09-23T15:25:51.193Z,59.13
2022-09-23T15:28:36.928Z,58.11
2022-09-23T15:31:27.327Z,57.98
2022-09-23T15:34:12.909Z,56.33
2022-09-23T15:36:58.022Z,55.26
2022-09-23T15:39:43.903Z,56.16
2022-09-23T15:42:29.446Z,56.54
2022-09-23T15:45:14.784Z,60.36
2022-09-23T15:48:06.744Z,58.35
2022-09-23T15:50:54.251Z,58.85
2022-09-23T15:53:39.444Z,61.93
2022-09-23T15:56:24.881Z,61.01
2022-09-23T15:59:10.116Z,62.40
2022-09-23T16:01:56.750Z,62.22
2022-09-23T16:04:41.602Z,61.79
2022-09-23T16:07:26.577Z,60.67
2022-09-23T16:10:11.351Z,61.70
2022-09-23T16:13:00.949Z,63.82
2022-09-23T16:15:46.393Z,62.53
2022-09-23T16:18:31.928Z,65.53
2022-09-23T16:21:19.789Z,63.26
2022-09-23T16:24:04.735Z,62.09
2022-09-23T16:26:49.746Z,62.66
2022-09-23T16:29:34.945Z,63.38
2022-09-23T16:32:22.218Z,65.72
2022-09-23T16:35:08.303Z,73.29
2022-09-23T16:37:54.285Z,67.91
2022-09-23T16:40:43.538Z,71.48
2022-09-23T16:43:32.662Z,69.50
2022-09-23T16:46:18.439Z,74.13
2022-09-23T16:49:03.765Z,72.04
2022-09-23T16:51:48.899Z,70.94
2022-09-23T16:54:37.272Z,70.46
2022-09-23T16:57:22.080Z,72.25
2022-09-23T17:00:30.456Z,73.43
2022-09-23T17:03:34.304Z,77.05
2022-09-23T17:06:19.420Z,77.63
2022-09-23T17:09:04.961Z,80.98
2022-09-23T17:12:11.872Z,80.77
2022-09-23T17:14:57.032Z,82.08
2022-09-23T17:17:41.893Z,80.66
2022-09-23T17:20:26.728Z,77.35
2022-09-23T17:23:11.649Z,82.67
2022-09-23T17:25:56.512Z,80.70
2022-09-23T17:28:41.998Z,81.55
2022-09-23T17:31:27.268Z,81.26
2022-09-23T17:34:12.556Z,80.24
2022-09-23T17:36:57.655Z,79.28
2022-09-23T17:39:42.577Z,82.96
2022-09-23T17:42:27.715Z,81.22
2022-09-23T17:45:12.889Z,78.64
2022-09-23T17:47:57.692Z,79.32
2022-09-23T17:50:42.656Z,82.66
2022-09-23T17:53:34.890Z,82.29
2022-09-23T17:56:31.976Z,80.75
2022-09-23T17:59:16.803Z,80.95
2022-09-23T18:02:01.812Z,82.26
2022-09-23T18:04:46.994Z,81.39
2022-09-23T18:07:31.991Z,84.05
2022-09-23T18:10:16.727Z,84.53
2022-09-23T18:13:01.735Z,83.28
2022-09-23T18:15:46.985Z,83.19
2022-09-23T18:18:31.867Z,83.70
2022-09-23T18:21:16.797Z,82.36
2022-09-23T18:24:28.152Z,80.14
2022-09-23T18:27:07.356Z,82.26
2022-09-23T18:29:52.462Z,80.21
2022-09-23T18:32:37.240Z,82.40
2022-09-23T18:35:22.032Z,83.14
2022-09-23T18:38:06.794Z,80.15
2022-09-23T18:40:57.630Z,84.00
2022-09-23T18:43:48.122Z,84.39
2022-09-23T18:46:33.836Z,83.76
2022-09-23T18:49:37.419Z,85.10
2022-09-23T18:52:22.607Z,84.55
2022-09-23T18:55:07.973Z,83.90
2022-09-23T18:57:53.128Z,84.67
2022-09-23T19:00:39.124Z,84.39
2022-09-23T19:03:23.997Z,83.48
2022-09-23T19:06:21.130Z,83.74
2022-09-23T19:09:07.086Z,83.40
2022-09-23T19:11:52.681Z,81.04
2022-09-23T19:14:37.985Z,81.36
2022-09-23T19:17:23.270Z,81.37
2022-09-23T19:20:09.948Z,83.03
2022-09-23T19:22:54.729Z,82.86
2022-09-23T19:25:39.503Z,85.08
2022-09-23T19:28:25.135Z,84.79
2022-09-23T19:31:13.741Z,83.83
2022-09-23T19:34:04.508Z,86.25
2022-09-23T19:36:50.004Z,86.50
2022-09-23T19:39:37.309Z,85.47
2022-09-23T19:42:22.984Z,85.79
2022-09-23T19:45:08.356Z,85.70
2022-09-23T19:47:56.289Z,86.18
2022-09-23T19:50:41.471Z,86.21
2022-09-23T19:53:28.275Z,89.09
2022-09-23T19:56:17.563Z,89.69
2022-09-23T19:59:05.668Z,89.65
2022-09-23T20:01:50.602Z,89.36
2022-09-23T20:04:35.387Z,88.92
2022-09-23T20:07:20.224Z,89.19
2022-09-23T20:10:05.368Z,89.20
2022-09-23T20:12:50.419Z,85.94
2022-09-23T20:15:36.730Z,85.61
2022-09-23T20:18:21.723Z,85.96
2022-09-23T20:21:09.142Z,85.48
2022-09-23T20:23:54.195Z,86.26
2022-09-23T20:26:57.866Z,86.24
2022-09-23T20:29:43.219Z,86.92
2022-09-23T20:32:28.113Z,85.96
2022-09-23T20:35:13.505Z,85.61
2022-09-23T20:37:58.842Z,86.23
2022-09-23T20:40:44.088Z,87.39
2022-09-23T20:43:29.146Z,86.91
2022-09-23T20:46:17.425Z,86.36
2022-09-23T20:49:03.464Z,85.77
2022-09-23T20:51:48.896Z,87.67
2022-09-23T20:54:34.227Z,86.27
2022-09-23T20:57:20.168Z,87.94
2022-09-23T21:00:07.497Z,88.85
2022-09-23T21:02:52.584Z,86.89
2022-09-23T21:05:37.520Z,86.95
2022-09-23T21:08:23.036Z,86.60
2022-09-23T21:11:11.143Z,87.15
2022-09-23T21:13:56.438Z,84.55
2022-09-23T21:16:41.478Z,83.79
2022-09-23T21:19:27.766Z,84.67
2022-09-23T21:22:12.568Z,83.71
2022-09-23T21:25:27.027Z,84.51
2022-09-23T21:28:03.529Z,84.24
2022-09-23T21:30:51.846Z,85.57
2022-09-23T21:33:37.396Z,85.54
2022-09-23T21:36:23.322Z,85.15
2022-09-23T21:39:10.320Z,85.50
2022-09-23T21:41:55.429Z,85.38
2022-09-23T21:44:40.380Z,85.63
2022-09-23T21:47:25.903Z,88.60
2022-09-23T21:50:11.840Z,86.54
2022-09-23T21:52:57.135Z,87.88
2022-09-23T21:55:42.331Z,88.90
2022-09-23T21:58:28.494Z,89.43
2022-09-23T22:01:15.242Z,89.76
2022-09-23T22:04:08.588Z,89.59
2022-09-23T22:06:53.840Z,88.95
2022-09-23T22:09:40.003Z,90.49
2022-09-23T22:12:25.118Z,86.62
2022-09-23T22:15:10.039Z,85.92
2022-09-23T22:17:55.027Z,86.65
2022-09-23T22:20:40.658Z,85.05
2022-09-23T22:23:25.560Z,86.86
2022-09-23T22:26:10.397Z,83.36
2022-09-23T22:29:13.872Z,83.37
2022-09-23T22:32:18.771Z,82.89
2022-09-23T22:35:04.484Z,86.97
2022-09-23T22:37:49.495Z,85.57
2022-09-23T22:40:35.836Z,83.60
2022-09-23T22:43:20.620Z,85.08
2022-09-23T22:46:05.456Z,86.29
2022-09-23T22:48:52.150Z,84.66
2022-09-23T22:51:38.940Z,87.17
2022-09-23T22:54:23.816Z,84.33
2022-09-23T22:57:09.240Z,84.19
2022-09-23T22:59:54.526Z,83.56
2022-09-23T23:02:40.151Z,87.36
2022-09-23T23:05:25.332Z,86.28
2022-09-23T23:08:11.135Z,87.43
2022-09-23T23:10:58.099Z,87.28
2022-09-23T23:13:43.019Z,88.40
2022-09-23T23:16:29.434Z,87.65
2022-09-23T23:19:16.883Z,88.11
2022-09-23T23:22:03.515Z,88.99
2022-09-23T23:24:49.860Z,88.12
2022-09-23T23:27:35.184Z,86.74
2022-09-23T23:30:20.284Z,87.99
2022-09-23T23:33:05.142Z,85.82
2022-09-23T23:35:51.165Z,85.65
2022-09-23T23:38:41.461Z,88.52
2022-09-23T23:41:28.242Z,86.42
2022-09-23T23:44:13.520Z,85.79
2022-09-23T23:46:58.338Z,88.24
2022-09-23T23:49:43.243Z,89.21
2022-09-23T23:52:28.074Z,87.33
2022-09-23T23:55:12.980Z,89.15
2022-09-23T23:58:02.128Z,87.97
